createdAt,value
2022-11-27T01:02:10.518Z,67.25
2022-11-27T01:04:49.714Z,69.70
2022-11-27T01:07:27.114Z,57.05
2022-11-27T01:12:42.797Z,59.53
2022-11-27T01:16:19.184Z,70.35
2022-11-27T01:19:07.790Z,64.85
2022-11-27T01:21:43.989Z,64.75
2022-11-27T01:27:53.945Z,60.85
2022-11-27T01:31:12.405Z,54.28
2022-11-27T01:34:49.298Z,53.05
2022-11-27T02:05:12.443Z,49.15
2022-11-27T02:49:32.073Z,31.05
2022-11-27T02:59:46.673Z,27.05
2022-11-27T03:02:41.489Z,31.50
2022-11-27T03:05:24.941Z,37.20
2022-11-27T03:08:42.319Z,33.40
2022-11-27T03:18:14.896Z,37.83
2022-11-27T03:21:17.608Z,30.95
2022-11-27T03:26:45.901Z,33.85
2022-11-27T03:29:41.515Z,28.95
2022-11-27T03:32:18.412Z,31.08
2022-11-27T03:34:58.997Z,33.85
2022-11-27T03:37:35.787Z,28.63
2022-11-27T03:40:09.368Z,27.63
2022-11-27T03:43:17.791Z,31.63
2022-11-27T03:46:10.332Z,35.58
2022-11-27T03:49:09.247Z,26.92
2022-11-27T03:52:27.161Z,33.72
2022-11-27T03:55:33.596Z,28.17
2022-11-27T03:58:26.871Z,26.38
2022-11-27T04:01:02.270Z,27.48
2022-11-27T04:03:41.205Z,28.67
2022-11-27T04:08:57.582Z,32.03
2022-11-27T04:15:20.703Z,21.48
2022-11-27T04:18:44.408Z,28.70
2022-11-27T04:21:22.118Z,24.52
2022-11-27T04:23:49.956Z,32.15
2022-11-27T04:26:20.892Z,27.85
2022-11-27T04:28:48.990Z,28.08
2022-11-27T04:31:16.687Z,25.30
2022-11-27T04:33:43.917Z,25.98
2022-11-27T04:36:11.135Z,26.88
2022-11-27T04:38:38.388Z,26.50
2022-11-27T04:41:05.760Z,28.38
2022-11-27T04:43:44.878Z,23.70
2022-11-27T04:46:12.529Z,19.58
2022-11-27T04:48:39.720Z,15.48
2022-11-27T04:51:07.265Z,22.30
2022-11-27T04:53:34.476Z,31.20
2022-11-27T04:56:01.615Z,29.15
2022-11-27T04:58:28.688Z,22.67
2022-11-27T05:00:55.804Z,21.00
2022-11-27T05:03:22.989Z,23.05
2022-11-27T05:05:57.874Z,32.13
2022-11-27T05:08:26.247Z,25.52
2022-11-27T05:11:22.955Z,26.35
2022-11-27T05:14:10.333Z,22.13
2022-11-27T05:16:37.522Z,31.85
2022-11-27T05:19:04.828Z,21.48
2022-11-27T05:21:32.329Z,28.25
2022-11-27T05:24:02.642Z,24.45
2022-11-27T05:26:30.506Z,27.52
2022-11-27T05:28:57.862Z,19.77
2022-11-27T05:31:25.596Z,23.58
2022-11-27T05:33:52.906Z,25.42
2022-11-27T05:36:20.492Z,22.30
2022-11-27T05:38:48.481Z,24.92
2022-11-27T05:41:17.633Z,26.35
2022-11-27T05:43:45.357Z,27.95
2022-11-27T05:46:14.857Z,22.95
2022-11-27T05:48:42.265Z,22.63
2022-11-27T05:51:09.685Z,23.83
2022-11-27T05:53:37.854Z,22.23
2022-11-27T05:56:09.935Z,24.88
2022-11-27T05:58:38.064Z,21.40
2022-11-27T06:01:08.964Z,23.25
2022-11-27T06:03:39.443Z,26.08
2022-11-27T06:06:13.202Z,28.65
2022-11-27T06:08:41.719Z,21.30
2022-11-27T06:11:13.327Z,24.17
2022-11-27T06:13:44.362Z,22.38
2022-11-27T06:16:20.541Z,37.95
2022-11-27T06:18:55.540Z,19.83
2022-11-27T06:21:24.397Z,34.28
2022-11-27T06:23:55.726Z,21.88
2022-11-27T06:26:29.024Z,19.45
2022-11-27T06:28:57.619Z,26.27
2022-11-27T06:31:28.061Z,20.73
2022-11-27T06:33:57.142Z,18.80
2022-11-27T06:36:29.007Z,20.08
2022-11-27T06:38:56.204Z,17.50
2022-11-27T06:41:26.257Z,23.08
2022-11-27T06:43:58.270Z,23.08
2022-11-27T06:46:26.358Z,24.33
2022-11-27T06:48:54.387Z,27.58
2022-11-27T06:51:24.957Z,21.83
2022-11-27T06:53:53.159Z,21.92
2022-11-27T06:56:24.147Z,19.83
2022-11-27T06:58:54.118Z,17.58
2022-11-27T07:01:22.283Z,25.52
2022-11-27T07:03:49.836Z,28.45
2022-11-27T07:06:20.836Z,19.80
2022-11-27T07:08:48.061Z,26.02
2022-11-27T07:11:15.792Z,20.55
2022-11-27T07:13:43.015Z,27.10
2022-11-27T07:16:11.974Z,20.75
2022-11-27T07:18:50.563Z,21.67
2022-11-27T07:21:20.802Z,24.08
2022-11-27T07:23:48.335Z,27.60
2022-11-27T07:26:18.392Z,17.90
2022-11-27T07:28:46.151Z,26.55
2022-11-27T07:31:15.565Z,21.90
2022-11-27T07:33:42.917Z,19.08
2022-11-27T07:36:16.413Z,20.88
2022-11-27T07:38:44.749Z,14.82
2022-11-27T07:41:12.527Z,19.05
2022-11-27T07:43:42.113Z,22.80
2022-11-27T07:46:30.250Z,22.65
2022-11-27T07:48:58.182Z,22.92
2022-11-27T07:51:25.185Z,15.90
2022-11-27T07:53:52.332Z,22.58
2022-11-27T07:56:19.923Z,19.50
2022-11-27T07:58:47.456Z,22.73
2022-11-27T08:01:17.059Z,21.52
2022-11-27T08:03:47.144Z,20.60
2022-11-27T08:06:20.541Z,21.77
2022-11-27T08:08:48.454Z,22.92
2022-11-27T08:11:27.207Z,29.55
2022-11-27T08:14:03.595Z,19.63
2022-11-27T08:16:34.992Z,22.02
2022-11-27T08:19:07.562Z,19.60
2022-11-27T08:21:35.654Z,19.02
2022-11-27T08:24:02.987Z,30.50
2022-11-27T08:26:30.153Z,25.08
2022-11-27T08:28:57.684Z,19.25
2022-11-27T08:31:25.167Z,22.60
2022-11-27T08:33:52.868Z,25.48
2022-11-27T08:36:20.067Z,25.42
2022-11-27T08:38:47.557Z,15.93
2022-11-27T08:41:15.142Z,28.50
2022-11-27T08:43:42.635Z,23.40
2022-11-27T08:46:10.693Z,22.08
2022-11-27T08:48:38.307Z,26.35
2022-11-27T08:51:11.156Z,16.15
2022-11-27T08:53:38.595Z,18.10
2022-11-27T08:56:13.868Z,22.45
2022-11-27T08:58:41.327Z,21.70
2022-11-27T09:01:10.479Z,18.52
2022-11-27T09:03:37.747Z,18.95
2022-11-27T09:06:10.421Z,22.83
2022-11-27T09:08:42.743Z,21.50
2022-11-27T09:11:11.784Z,20.65
2022-11-27T09:13:40.232Z,15.82
2022-11-27T09:16:13.463Z,21.05
2022-11-27T09:18:44.508Z,19.35
2022-11-27T09:21:13.129Z,19.05
2022-11-27T09:23:40.703Z,21.58
2022-11-27T09:26:17.579Z,19.95
2022-11-27T09:28:45.160Z,17.08
2022-11-27T09:31:16.032Z,16.88
2022-11-27T09:33:44.286Z,18.48
2022-11-27T09:36:17.541Z,15.65
2022-11-27T09:38:45.385Z,13.38
2022-11-27T09:41:39.253Z,17.85
2022-11-27T09:44:31.168Z,18.15
2022-11-27T09:47:38.479Z,15.57
2022-11-27T09:50:15.816Z,21.38
2022-11-27T09:52:59.676Z,13.57
2022-11-27T09:55:41.847Z,17.58
2022-11-27T09:58:15.132Z,20.17
2022-11-27T10:00:44.740Z,17.95
2022-11-27T10:03:20.641Z,25.08
2022-11-27T10:05:57.217Z,15.55
2022-11-27T10:08:47.504Z,14.98
2022-11-27T10:11:32.148Z,13.48
2022-11-27T10:14:35.530Z,15.88
2022-11-27T10:17:33.426Z,13.13
2022-11-27T10:20:48.398Z,15.80
2022-11-27T10:23:28.661Z,15.18
2022-11-27T10:26:01.334Z,10.82
2022-11-27T10:28:46.552Z,14.80
2022-11-27T10:31:46.086Z,17.33
2022-11-27T10:34:25.240Z,11.88
2022-11-27T10:36:54.189Z,11.60
2022-11-27T10:39:41.055Z,13.82
2022-11-27T10:42:24.711Z,14.70
2022-11-27T10:44:59.855Z,12.75
2022-11-27T10:47:30.991Z,10.68
2022-11-27T10:50:04.043Z,13.52
2022-11-27T10:52:33.537Z,12.23
2022-11-27T10:55:05.309Z,12.63
2022-11-27T10:57:58.856Z,12.48
2022-11-27T11:00:27.909Z,12.15
2022-11-27T11:03:04.783Z,13.80
2022-11-27T11:06:04.178Z,11.70
2022-11-27T11:08:26.315Z,15.90
2022-11-27T11:10:58.032Z,12.57
2022-11-27T11:13:27.975Z,12.27
2022-11-27T11:16:05.596Z,12.77
2022-11-27T11:18:44.017Z,10.77
2022-11-27T11:21:38.376Z,15.07
2022-11-27T11:24:24.624Z,13.90
2022-11-27T11:26:55.610Z,12.55
2022-11-27T11:29:34.220Z,15.60
2022-11-27T11:32:13.440Z,13.63
2022-11-27T11:34:53.992Z,13.40
2022-11-27T11:37:30.140Z,12.95
2022-11-27T11:40:09.766Z,13.77
2022-11-27T11:42:57.244Z,13.18
2022-11-27T11:45:28.760Z,15.13
2022-11-27T11:48:23.544Z,15.48
2022-11-27T11:51:06.330Z,12.93
2022-11-27T11:53:45.614Z,14.75
2022-11-27T11:56:30.403Z,12.43
2022-11-27T11:59:16.023Z,12.38
2022-11-27T12:02:28.778Z,17.25
2022-11-27T12:05:10.515Z,14.30
2022-11-27T12:08:26.923Z,12.88
2022-11-27T12:11:20.926Z,12.65
2022-11-27T12:14:12.011Z,8.98
2022-11-27T12:17:08.949Z,13.73
2022-11-27T12:19:58.711Z,15.45
2022-11-27T12:22:51.410Z,13.23
2022-11-27T12:25:53.145Z,12.43
2022-11-27T12:28:32.861Z,13.57
2022-11-27T12:31:10.365Z,13.30
2022-11-27T12:33:55.805Z,14.43
2022-11-27T12:37:02.800Z,14.07
2022-11-27T12:39:52.720Z,13.85
2022-11-27T12:42:51.913Z,13.02
2022-11-27T12:45:29.703Z,11.95
2022-11-27T12:48:20.629Z,12.73
2022-11-27T12:51:07.249Z,14.40
2022-11-27T12:53:52.615Z,9.90
2022-11-27T12:56:59.675Z,10.35
2022-11-27T12:59:58.567Z,12.55
2022-11-27T13:02:41.176Z,13.73
2022-11-27T13:05:20.986Z,12.10
2022-11-27T13:07:57.854Z,9.27
2022-11-27T13:10:25.415Z,11.18
2022-11-27T13:13:08.106Z,13.55
2022-11-27T13:15:52.731Z,13.45
2022-11-27T13:18:45.555Z,11.95
2022-11-27T13:21:22.809Z,10.30
2022-11-27T13:23:51.276Z,12.05
2022-11-27T13:26:28.985Z,12.40
2022-11-27T13:29:03.660Z,12.35
2022-11-27T13:31:36.020Z,11.50
2022-11-27T13:34:07.789Z,9.35
2022-11-27T13:36:42.006Z,16.55
2022-11-27T13:39:29.966Z,12.55
2022-11-27T13:42:22.187Z,12.90
2022-11-27T13:44:57.620Z,11.75
2022-11-27T13:47:27.953Z,12.75
2022-11-27T13:50:02.104Z,9.90
2022-11-27T13:52:32.113Z,12.30
2022-11-27T13:55:02.921Z,9.98
2022-11-27T13:57:31.291Z,14.27
2022-11-27T14:00:30.297Z,10.10
2022-11-27T14:02:58.265Z,9.98
2022-11-27T14:05:43.024Z,9.00
2022-11-27T14:08:21.259Z,13.35
2022-11-27T14:11:15.741Z,13.10
2022-11-27T14:13:53.026Z,11.93
2022-11-27T14:16:34.455Z,12.68
2022-11-27T14:19:34.210Z,12.32
2022-11-27T14:22:17.678Z,14.23
2022-11-27T14:24:46.063Z,12.50
2022-11-27T14:27:24.656Z,14.20
2022-11-27T14:29:52.310Z,10.18
2022-11-27T14:32:21.306Z,12.45
2022-11-27T14:34:49.077Z,12.75
2022-11-27T14:37:25.196Z,10.82
2022-11-27T14:39:52.821Z,12.05
2022-11-27T14:42:29.782Z,17.05
2022-11-27T14:45:24.391Z,10.95
2022-11-27T14:47:54.284Z,10.73
2022-11-27T14:50:22.284Z,13.90
2022-11-27T14:52:55.291Z,11.35
2022-11-27T14:55:23.158Z,9.55
2022-11-27T14:57:51.008Z,13.43
2022-11-27T15:00:30.114Z,10.18
2022-11-27T15:03:09.933Z,11.88
2022-11-27T15:05:39.627Z,13.90
2022-11-27T15:08:11.540Z,12.75
2022-11-27T15:10:56.066Z,12.52
2022-11-27T15:17:41.413Z,10.73
2022-11-27T15:20:26.759Z,13.60
2022-11-27T15:23:03.544Z,11.65
2022-11-27T15:25:40.504Z,14.18
2022-11-27T15:28:26.314Z,9.60
2022-11-27T15:30:54.721Z,10.35
2022-11-27T15:33:40.515Z,14.05
2022-11-27T15:36:19.758Z,12.32
2022-11-27T15:38:51.763Z,8.98
2022-11-27T15:41:33.056Z,9.55
2022-11-27T15:44:03.758Z,9.40
2022-11-27T15:46:35.077Z,11.50
2022-11-27T15:49:05.052Z,11.32
2022-11-27T15:54:01.171Z,9.27
2022-11-27T15:56:28.727Z,9.85
2022-11-27T15:58:57.191Z,9.60
2022-11-27T16:01:24.736Z,10.50
2022-11-27T16:03:52.024Z,11.10
2022-11-27T16:06:28.526Z,12.77
2022-11-27T16:09:03.417Z,14.23
2022-11-27T16:11:35.372Z,12.48
2022-11-27T16:14:06.189Z,10.60
2022-11-27T16:16:36.956Z,15.25
2022-11-27T16:19:07.641Z,16.42
2022-11-27T16:21:37.675Z,10.57
2022-11-27T16:24:08.081Z,13.98
2022-11-27T16:26:38.554Z,11.70
2022-11-27T16:29:11.979Z,14.15
2022-11-27T16:31:42.068Z,12.30
2022-11-27T16:34:10.119Z,11.48
2022-11-27T16:36:43.860Z,12.98
2022-11-27T16:39:14.816Z,12.93
2022-11-27T16:41:42.458Z,12.60
2022-11-27T16:44:14.808Z,12.80
2022-11-27T16:46:44.677Z,10.43
2022-11-27T16:49:12.363Z,11.65
2022-11-27T16:51:40.864Z,11.05
2022-11-27T16:54:13.426Z,14.02
2022-11-27T16:56:43.760Z,11.00
2022-11-27T16:59:20.877Z,11.57
2022-11-27T17:01:54.992Z,11.68
2022-11-27T17:04:22.231Z,10.77
2022-11-27T17:06:50.440Z,13.13
2022-11-27T17:11:48.784Z,11.20
2022-11-27T17:14:19.179Z,12.80
2022-11-27T17:16:48.221Z,10.73
2022-11-27T17:19:16.527Z,9.90
2022-11-27T17:21:46.714Z,10.00
2022-11-27T17:24:16.461Z,11.77
2022-11-27T17:26:48.157Z,10.38
2022-11-27T17:29:21.655Z,12.43
2022-11-27T17:31:50.582Z,12.02
2022-11-27T17:34:18.235Z,10.80
2022-11-27T17:36:45.934Z,11.77
2022-11-27T17:39:15.239Z,11.45
2022-11-27T17:41:45.017Z,10.75
2022-11-27T17:44:12.500Z,10.88
2022-11-27T17:46:40.011Z,10.07
2022-11-27T17:49:08.460Z,11.15
2022-11-27T17:51:36.461Z,10.50
2022-11-27T17:54:06.015Z,12.77
2022-11-27T17:59:02.086Z,13.10
2022-11-27T18:01:31.066Z,10.55
2022-11-27T18:04:04.212Z,13.38
2022-11-27T18:06:33.835Z,10.38
2022-11-27T18:09:10.282Z,13.30
2022-11-27T18:11:41.889Z,14.88
2022-11-27T18:14:15.160Z,17.00
2022-11-27T18:16:43.289Z,11.73
2022-11-27T18:19:12.055Z,14.77
2022-11-27T18:21:40.552Z,12.98
2022-11-27T18:24:23.129Z,11.23
2022-11-27T18:27:08.817Z,13.95
2022-11-27T18:29:39.795Z,10.40
2022-11-27T18:34:34.898Z,12.73
2022-11-27T18:37:02.879Z,14.27
2022-11-27T18:39:34.116Z,15.52
2022-11-27T18:42:07.105Z,15.13
2022-11-27T18:44:37.325Z,14.05
2022-11-27T18:47:10.734Z,16.30
2022-11-27T18:49:40.209Z,16.33
2022-11-27T18:52:09.159Z,13.50
2022-11-27T18:54:39.229Z,10.60
2022-11-27T18:57:07.322Z,14.45
2022-11-27T18:59:38.318Z,13.10
2022-11-27T19:02:10.384Z,12.60
2022-11-27T19:04:37.932Z,11.52
2022-11-27T19:07:05.835Z,17.85
2022-11-27T19:09:33.196Z,13.05
2022-11-27T19:12:00.839Z,14.20
2022-11-27T19:14:28.469Z,16.90
2022-11-27T19:16:56.611Z,13.70
2022-11-27T19:19:53.320Z,12.75
2022-11-27T19:22:13.561Z,10.52
2022-11-27T19:24:40.942Z,14.02
2022-11-27T19:27:08.517Z,11.43
2022-11-27T19:29:35.989Z,14.02
2022-11-27T19:32:03.448Z,12.88
2022-11-27T19:34:33.342Z,16.88
2022-11-27T19:37:02.660Z,14.18
2022-11-27T19:39:30.146Z,12.77
2022-11-27T19:41:57.959Z,14.43
2022-11-27T19:44:26.396Z,16.42
2022-11-27T19:46:53.812Z,16.80
2022-11-27T19:49:27.126Z,13.07
2022-11-27T19:51:58.653Z,12.52
2022-11-27T19:54:26.898Z,13.38
2022-11-27T19:56:54.900Z,14.75
2022-11-27T19:59:25.981Z,12.05
2022-11-27T20:01:55.087Z,12.25
2022-11-27T20:04:33.139Z,11.40
2022-11-27T20:07:14.192Z,16.40
2022-11-27T20:09:43.451Z,10.68
2022-11-27T20:12:10.946Z,12.38
2022-11-27T20:14:38.463Z,12.68
2022-11-27T20:17:07.090Z,11.40
2022-11-27T20:19:35.164Z,11.75
2022-11-27T20:22:03.757Z,10.73
2022-11-27T20:24:38.209Z,11.52
2022-11-27T20:27:12.098Z,16.02
2022-11-27T20:29:39.851Z,12.95
2022-11-27T20:32:08.635Z,10.65
2022-11-27T20:34:36.085Z,13.00
2022-11-27T20:37:05.478Z,9.98
2022-11-27T20:39:32.907Z,12.75
2022-11-27T20:42:00.555Z,11.77
2022-11-27T20:44:28.899Z,9.43
2022-11-27T20:46:57.029Z,9.85
2022-11-27T20:49:25.620Z,12.45
2022-11-27T20:51:55.127Z,10.35
2022-11-27T20:54:26.700Z,14.35
2022-11-27T20:56:54.558Z,9.90
2022-11-27T20:59:25.145Z,10.52
2022-11-27T21:01:53.090Z,10.88
2022-11-27T21:04:27.934Z,9.35
2022-11-27T21:06:59.175Z,10.65
2022-11-27T21:09:27.206Z,11.20
2022-11-27T21:11:54.671Z,10.85
2022-11-27T21:14:22.661Z,11.80
2022-11-27T21:16:51.084Z,13.60
2022-11-27T21:19:27.113Z,11.43
2022-11-27T21:21:57.835Z,10.85
2022-11-27T21:24:27.871Z,11.15
2022-11-27T21:27:00.923Z,11.13
2022-11-27T21:29:28.708Z,10.10
2022-11-27T21:40:06.050Z,12.55
2022-11-27T21:42:41.578Z,9.15
2022-11-27T21:45:16.582Z,7.70
2022-11-27T21:47:45.442Z,12.88
2022-11-27T21:50:15.072Z,8.25
2022-11-27T21:52:44.731Z,10.00
2022-11-27T21:55:13.877Z,8.65
2022-11-27T22:00:34.858Z,12.13
2022-11-27T22:03:02.619Z,11.63
2022-11-27T22:05:32.317Z,11.10
2022-11-27T22:08:03.735Z,9.20
2022-11-27T22:10:37.114Z,12.57
2022-11-27T22:13:07.612Z,10.43
2022-11-27T22:16:15.509Z,11.43
2022-11-27T22:18:50.601Z,9.93
2022-11-27T22:21:22.500Z,8.15
2022-11-27T22:23:50.898Z,15.35
2022-11-27T22:26:20.516Z,12.23
2022-11-27T22:28:56.297Z,11.43
2022-11-27T22:31:35.210Z,7.88
2022-11-27T22:34:15.076Z,10.15
2022-11-27T22:36:57.218Z,12.82
2022-11-27T22:39:42.634Z,12.85
2022-11-27T22:42:12.920Z,10.85
2022-11-27T22:44:40.983Z,11.60
2022-11-27T22:47:09.651Z,9.15
2022-11-27T22:49:41.164Z,10.63
2022-11-27T22:52:08.822Z,9.57
2022-11-27T22:54:36.483Z,13.95
2022-11-27T22:57:04.046Z,11.98
2022-11-27T22:59:34.075Z,11.27
2022-11-27T23:02:11.657Z,8.60
2022-11-27T23:04:47.242Z,6.65
2022-11-27T23:07:14.862Z,12.23
2022-11-27T23:09:49.248Z,9.55
2022-11-27T23:12:33.503Z,12.10
2022-11-27T23:15:35.188Z,8.60
2022-11-27T23:18:16.564Z,10.90
2022-11-27T23:21:25.328Z,11.40
2022-11-27T23:23:58.323Z,9.75
2022-11-27T23:26:32.570Z,9.88
2022-11-27T23:29:07.008Z,12.23
2022-11-27T23:31:48.922Z,12.93
2022-11-27T23:34:20.974Z,10.40
2022-11-27T23:36:55.397Z,8.88
2022-11-27T23:39:28.142Z,8.65
2022-11-27T23:45:07.487Z,9.07
2022-11-27T23:47:35.463Z,11.23
2022-11-27T23:50:14.206Z,8.50
2022-11-27T23:52:43.469Z,10.63
2022-11-27T23:55:15.316Z,10.30
2022-11-27T23:57:53.158Z,7.82
